createdAt,value
2022-10-28T00:01:12.180Z,10.66
2022-10-28T00:03:40.717Z,10.65
2022-10-28T00:06:10.786Z,10.71
2022-10-28T00:08:37.868Z,10.69
2022-10-28T00:11:06.679Z,10.70
2022-10-28T00:13:33.804Z,10.72
2022-10-28T00:16:10.223Z,10.80
2022-10-28T00:18:37.779Z,10.89
2022-10-28T00:21:06.863Z,10.89
2022-10-28T00:23:33.545Z,10.93
2022-10-28T00:26:07.922Z,10.99
2022-10-28T00:28:34.622Z,10.95
2022-10-28T00:31:06.670Z,10.89
2022-10-28T00:33:35.193Z,10.95
2022-10-28T00:36:09.424Z,10.98
2022-10-28T00:38:36.217Z,11.01
2022-10-28T00:41:02.852Z,10.97
2022-10-28T00:43:37.553Z,10.92
2022-10-28T00:46:07.334Z,10.86
2022-10-28T00:48:35.465Z,10.81
2022-10-28T00:51:02.968Z,10.76
2022-10-28T00:53:32.361Z,10.82
2022-10-28T00:56:02.004Z,10.79
2022-10-28T00:58:29.567Z,10.73
2022-10-28T01:00:56.659Z,10.79
2022-10-28T01:03:23.422Z,10.85
2022-10-28T01:05:52.621Z,10.82
2022-10-28T01:08:20.251Z,10.88
2022-10-28T01:11:16.601Z,10.98
2022-10-28T01:13:54.175Z,10.99
2022-10-28T01:16:33.569Z,10.93
2022-10-28T01:19:22.799Z,10.92
2022-10-28T01:22:06.255Z,10.93
2022-10-28T01:24:50.420Z,10.91
2022-10-28T01:27:51.364Z,11.04
2022-10-28T01:30:20.245Z,10.95
2022-10-28T01:32:59.964Z,10.94
2022-10-28T01:35:32.906Z,10.96
2022-10-28T01:38:15.669Z,11.02
2022-10-28T01:40:48.132Z,11.06
2022-10-28T01:43:22.200Z,11.04
2022-10-28T01:45:52.375Z,11.11
2022-10-28T01:48:25.783Z,11.11
2022-10-28T01:50:57.578Z,11.18
2022-10-28T01:53:29.465Z,11.29
2022-10-28T01:56:00.246Z,11.26
2022-10-28T01:58:31.095Z,11.25
2022-10-28T02:01:01.506Z,11.27
2022-10-28T02:03:29.589Z,11.26
2022-10-28T02:05:58.490Z,11.29
2022-10-28T02:08:53.376Z,11.25
2022-10-28T02:11:32.830Z,11.23
2022-10-28T02:14:07.452Z,11.18
2022-10-28T02:16:42.910Z,11.24
2022-10-28T02:19:17.419Z,11.29
2022-10-28T02:21:55.761Z,11.36
2022-10-28T02:24:34.471Z,11.35
2022-10-28T02:27:12.784Z,11.49
2022-10-28T02:29:45.868Z,11.65
2022-10-28T02:32:17.673Z,11.79
2022-10-28T02:34:49.299Z,11.91
2022-10-28T02:37:23.042Z,11.90
2022-10-28T02:39:55.404Z,11.83
2022-10-28T02:42:26.221Z,11.80
2022-10-28T02:44:57.282Z,11.97
2022-10-28T02:47:28.819Z,11.97
2022-10-28T02:50:00.692Z,11.97
2022-10-28T02:52:30.227Z,11.83
2022-10-28T02:54:59.036Z,11.92
2022-10-28T02:57:28.149Z,11.99
2022-10-28T02:59:57.385Z,12.03
2022-10-28T03:02:24.545Z,12.13
2022-10-28T03:04:51.400Z,12.19
2022-10-28T03:07:19.966Z,12.23
2022-10-28T03:09:46.807Z,12.35
2022-10-28T03:12:13.629Z,12.43
2022-10-28T03:14:41.126Z,12.42
2022-10-28T03:17:07.840Z,12.52
2022-10-28T03:19:34.533Z,12.54
2022-10-28T03:22:01.194Z,12.63
2022-10-28T03:24:29.167Z,12.60
2022-10-28T03:26:55.948Z,12.54
2022-10-28T03:29:22.615Z,12.52
2022-10-28T03:31:49.245Z,12.56
2022-10-28T03:34:15.879Z,12.63
2022-10-28T03:36:42.592Z,12.68
2022-10-28T03:39:09.314Z,12.70
2022-10-28T03:41:37.346Z,12.73
2022-10-28T03:44:04.159Z,12.71
2022-10-28T03:46:33.585Z,12.70
2022-10-28T03:49:02.564Z,12.72
2022-10-28T03:51:29.241Z,12.73
2022-10-28T03:53:55.875Z,12.76
2022-10-28T03:56:22.614Z,12.73
2022-10-28T04:01:17.551Z,12.77
2022-10-28T04:03:44.247Z,12.75
2022-10-28T04:06:10.991Z,12.72
2022-10-28T04:08:37.805Z,12.73
2022-10-28T04:11:04.745Z,12.68
2022-10-28T04:13:31.412Z,12.70
2022-10-28T04:15:59.472Z,12.69
2022-10-28T04:18:26.184Z,12.65
2022-10-28T04:20:52.851Z,12.83
2022-10-28T04:23:19.519Z,12.88
2022-10-28T04:25:46.230Z,12.76
2022-10-28T04:28:12.908Z,12.76
2022-10-28T04:30:39.548Z,12.82
2022-10-28T04:33:09.161Z,12.77
2022-10-28T04:35:39.123Z,12.81
2022-10-28T04:38:05.821Z,12.81
2022-10-28T04:40:32.547Z,12.90
2022-10-28T04:42:59.188Z,12.90
2022-10-28T04:45:25.802Z,13.12
2022-10-28T04:47:57.030Z,13.67
2022-10-28T04:50:25.067Z,14.38
2022-10-28T04:52:51.985Z,15.17
2022-10-28T04:55:19.011Z,15.48
2022-10-28T04:57:53.952Z,15.74
2022-10-28T05:00:20.824Z,15.89
2022-10-28T05:02:47.578Z,16.28
2022-10-28T05:05:14.603Z,16.44
2022-10-28T05:07:42.610Z,16.46
2022-10-28T05:10:09.799Z,16.54
2022-10-28T05:12:36.392Z,16.62
2022-10-28T05:15:03.071Z,16.70
2022-10-28T05:17:29.698Z,16.79
2022-10-28T05:19:56.355Z,16.83
2022-10-28T05:22:23.013Z,16.78
2022-10-28T05:24:51.000Z,16.69
2022-10-28T05:27:17.649Z,16.39
2022-10-28T05:29:44.320Z,16.00
2022-10-28T05:32:11.003Z,15.71
2022-10-28T05:34:37.673Z,15.61
2022-10-28T05:37:04.258Z,15.68
2022-10-28T05:39:30.839Z,15.58
2022-10-28T05:41:58.805Z,15.88
2022-10-28T05:44:25.461Z,16.00
2022-10-28T05:46:52.110Z,15.97
2022-10-28T05:49:20.390Z,15.97
2022-10-28T05:51:47.107Z,15.94
2022-10-28T05:54:13.788Z,15.89
2022-10-28T05:56:40.481Z,15.88
2022-10-28T05:59:08.460Z,15.81
2022-10-28T06:01:35.187Z,15.86
2022-10-28T06:04:01.969Z,15.84
2022-10-28T06:06:28.880Z,15.72
2022-10-28T06:08:55.517Z,15.83
2022-10-28T06:11:20.626Z,15.75
2022-10-28T06:13:47.274Z,15.87
2022-10-28T06:16:15.228Z,15.86
2022-10-28T06:18:41.856Z,15.88
2022-10-28T06:21:08.708Z,15.88
2022-10-28T06:23:35.532Z,15.91
2022-10-28T06:26:03.505Z,16.01
2022-10-28T06:28:31.033Z,16.14
2022-10-28T06:31:00.683Z,16.19
2022-10-28T06:33:28.697Z,16.33
2022-10-28T06:35:58.569Z,16.30
2022-10-28T06:38:26.518Z,16.33
2022-10-28T06:40:53.485Z,16.34
2022-10-28T06:43:20.183Z,16.37
2022-10-28T06:45:52.260Z,16.60
2022-10-28T06:48:20.468Z,16.76
2022-10-28T06:50:48.622Z,16.85
2022-10-28T06:53:15.275Z,16.97
2022-10-28T06:55:41.959Z,17.13
2022-10-28T06:58:09.644Z,17.33
2022-10-28T07:00:36.529Z,17.61
2022-10-28T07:03:03.430Z,17.60
2022-10-28T07:05:30.188Z,17.70
2022-10-28T07:07:58.290Z,17.62
2022-10-28T07:10:25.096Z,17.60
2022-10-28T07:12:52.847Z,17.64
2022-10-28T07:15:19.777Z,17.75
2022-10-28T07:17:52.794Z,17.81
2022-10-28T07:20:19.527Z,17.79
2022-10-28T07:22:46.185Z,17.86
2022-10-28T07:25:15.114Z,17.92
2022-10-28T07:27:41.897Z,17.91
2022-10-28T07:30:10.083Z,17.99
2022-10-28T07:32:36.840Z,17.90
2022-10-28T07:35:03.827Z,17.77
2022-10-28T07:37:30.568Z,17.84
2022-10-28T07:39:57.298Z,17.88
2022-10-28T07:42:25.561Z,17.79
2022-10-28T07:44:52.384Z,17.96
2022-10-28T07:47:21.380Z,18.04
2022-10-28T07:49:48.676Z,18.09
2022-10-28T07:52:15.858Z,18.11
2022-10-28T07:54:42.572Z,18.10
2022-10-28T07:57:09.279Z,17.98
2022-10-28T07:59:37.349Z,17.66
2022-10-28T08:02:04.646Z,17.46
2022-10-28T08:04:31.813Z,17.37
2022-10-28T08:06:59.122Z,17.41
2022-10-28T08:09:25.938Z,17.37
2022-10-28T08:11:55.672Z,17.93
2022-10-28T08:14:22.577Z,18.40
2022-10-28T08:16:50.638Z,18.61
2022-10-28T08:19:17.312Z,18.87
2022-10-28T08:21:44.002Z,18.98
2022-10-28T08:24:10.726Z,19.07
2022-10-28T08:26:38.631Z,18.97
2022-10-28T08:29:05.382Z,19.01
2022-10-28T08:31:32.238Z,18.99
2022-10-28T08:34:00.303Z,19.13
2022-10-28T08:36:27.044Z,19.27
2022-10-28T08:38:53.705Z,19.30
2022-10-28T08:41:29.852Z,19.22
2022-10-28T08:44:24.501Z,19.27
2022-10-28T08:47:04.093Z,19.29
2022-10-28T08:49:34.649Z,19.25
2022-10-28T08:52:08.238Z,19.20
2022-10-28T08:54:37.189Z,19.16
2022-10-28T08:57:08.316Z,19.03
2022-10-28T08:59:38.759Z,19.02
2022-10-28T09:02:19.831Z,19.02
2022-10-28T09:04:49.261Z,18.97
2022-10-28T09:07:18.501Z,18.85
2022-10-28T09:09:45.762Z,18.82
2022-10-28T09:12:25.319Z,19.06
2022-10-28T09:15:06.019Z,19.12
2022-10-28T09:17:42.338Z,19.15
2022-10-28T09:20:18.730Z,19.23
2022-10-28T09:22:55.605Z,19.26
2022-10-28T09:25:27.418Z,19.29
2022-10-28T09:28:10.134Z,19.33
2022-10-28T09:30:48.765Z,19.43
2022-10-28T09:33:37.262Z,19.55
2022-10-28T09:36:11.306Z,19.70
2022-10-28T09:38:39.003Z,19.76
2022-10-28T09:41:15.452Z,20.06
2022-10-28T09:43:48.849Z,20.11
2022-10-28T09:46:18.313Z,20.10
2022-10-28T09:48:48.093Z,20.10
2022-10-28T09:51:33.449Z,20.06
2022-10-28T09:54:02.401Z,-147.88
2022-10-28T09:56:30.780Z,-147.88
2022-10-28T09:59:01.512Z,-147.88
2022-10-28T10:01:32.759Z,-147.88
2022-10-28T10:04:00.039Z,-147.88
2022-10-28T10:06:32.522Z,-147.88
2022-10-28T10:09:00.199Z,-147.88
2022-10-28T10:11:33.210Z,-147.88
2022-10-28T10:14:04.989Z,-147.88
2022-10-28T10:16:41.214Z,-147.88
2022-10-28T10:19:09.792Z,-147.88
2022-10-28T10:21:45.910Z,-147.88
2022-10-28T10:24:32.632Z,-147.88
2022-10-28T10:27:02.930Z,-147.88
2022-10-28T10:29:32.540Z,20.73
2022-10-28T10:32:22.887Z,21.50
2022-10-28T10:34:56.427Z,21.99
2022-10-28T10:37:24.860Z,22.45
2022-10-28T10:40:04.886Z,22.53
2022-10-28T10:42:31.668Z,22.59
2022-10-28T10:45:02.992Z,22.63
2022-10-28T10:47:30.749Z,22.55
2022-10-28T10:50:22.599Z,22.26
2022-10-28T10:52:55.067Z,22.14
2022-10-28T10:55:34.335Z,22.14
2022-10-28T10:58:02.658Z,22.05
2022-10-28T11:00:35.188Z,22.42
2022-10-28T11:03:03.624Z,22.66
2022-10-28T11:05:35.877Z,22.80
2022-10-28T11:08:07.656Z,23.04
2022-10-28T11:10:35.292Z,23.18
2022-10-28T11:13:05.222Z,23.36
2022-10-28T11:15:33.042Z,23.36
2022-10-28T11:18:02.277Z,23.30
2022-10-28T11:20:43.894Z,23.18
2022-10-28T11:23:44.057Z,23.50
2022-10-28T11:26:13.700Z,23.55
2022-10-28T11:28:55.665Z,23.27
2022-10-28T11:31:46.185Z,23.43
2022-10-28T11:34:34.262Z,23.42
2022-10-28T11:37:11.426Z,23.59
2022-10-28T11:39:49.633Z,23.60
2022-10-28T11:42:24.880Z,23.49
2022-10-28T11:44:56.683Z,23.29
2022-10-28T11:47:57.358Z,23.37
2022-10-28T11:50:31.936Z,23.48
2022-10-28T11:53:28.194Z,23.17
2022-10-28T11:56:09.314Z,23.17
2022-10-28T11:58:46.328Z,23.33
2022-10-28T12:01:27.614Z,23.40
2022-10-28T12:04:07.431Z,23.77
2022-10-28T12:06:57.396Z,23.69
2022-10-28T12:09:35.073Z,23.73
2022-10-28T12:12:13.860Z,23.67
2022-10-28T12:14:52.803Z,23.59
2022-10-28T12:17:28.423Z,23.58
2022-10-28T12:19:59.059Z,23.43
2022-10-28T12:22:30.270Z,23.74
2022-10-28T12:25:01.647Z,23.80
2022-10-28T12:27:32.664Z,23.80
2022-10-28T12:30:03.430Z,24.02
2022-10-28T12:32:35.017Z,24.03
2022-10-28T12:35:07.835Z,23.59
2022-10-28T12:37:42.067Z,23.38
2022-10-28T12:40:16.125Z,23.38
2022-10-28T12:42:50.698Z,23.16
2022-10-28T12:45:33.824Z,23.41
2022-10-28T12:48:07.426Z,23.40
2022-10-28T12:50:40.324Z,23.27
2022-10-28T12:53:24.660Z,23.38
2022-10-28T12:55:58.252Z,23.32
2022-10-28T12:58:33.062Z,23.25
2022-10-28T13:01:03.879Z,23.34
2022-10-28T13:03:31.732Z,23.03
2022-10-28T13:06:15.640Z,22.96
2022-10-28T13:09:02.851Z,22.84
2022-10-28T13:12:00.727Z,22.34
2022-10-28T13:14:45.178Z,22.20
2022-10-28T13:17:28.859Z,22.01
2022-10-28T13:20:02.157Z,22.00
2022-10-28T13:22:48.291Z,22.31
2022-10-28T13:25:33.133Z,22.38
2022-10-28T13:28:00.686Z,22.62
2022-10-28T13:30:32.002Z,22.68
2022-10-28T13:33:06.919Z,23.01
2022-10-28T13:35:33.847Z,23.06
2022-10-28T13:38:02.048Z,23.11
2022-10-28T13:41:05.992Z,23.09
2022-10-28T13:43:57.638Z,22.98
2022-10-28T13:47:04.458Z,22.83
2022-10-28T13:49:34.307Z,22.65
2022-10-28T13:52:04.258Z,22.47
2022-10-28T13:54:33.546Z,22.36
2022-10-28T13:57:13.811Z,22.26
2022-10-28T13:59:51.816Z,22.15
2022-10-28T14:02:35.218Z,22.00
2022-10-28T14:05:07.395Z,21.91
2022-10-28T14:07:35.809Z,21.59
2022-10-28T14:10:21.017Z,21.07
2022-10-28T14:12:51.697Z,20.71
2022-10-28T14:15:25.302Z,20.65
2022-10-28T14:18:00.848Z,20.64
2022-10-28T14:20:40.620Z,20.46
2022-10-28T14:23:49.416Z,20.35
2022-10-28T14:26:16.087Z,20.29
2022-10-28T14:28:53.494Z,20.35
2022-10-28T14:31:35.745Z,20.38
2022-10-28T14:34:38.853Z,20.34
2022-10-28T14:37:28.628Z,20.32
2022-10-28T14:40:14.070Z,20.37
2022-10-28T14:43:24.005Z,20.19
2022-10-28T14:46:05.772Z,20.03
2022-10-28T14:48:52.175Z,20.00
2022-10-28T14:51:21.889Z,20.00
2022-10-28T14:53:53.065Z,19.84
2022-10-28T14:58:58.042Z,19.56
2022-10-28T15:01:27.607Z,19.45
2022-10-28T15:03:58.745Z,19.35
2022-10-28T15:06:28.172Z,19.35
2022-10-28T15:09:02.628Z,19.58
2022-10-28T15:11:30.451Z,20.09
2022-10-28T15:14:11.991Z,20.08
2022-10-28T15:16:46.533Z,20.23
2022-10-28T15:19:16.760Z,20.21
2022-10-28T15:21:43.529Z,20.33
2022-10-28T15:24:14.143Z,20.33
2022-10-28T15:26:40.916Z,20.35
2022-10-28T15:29:09.899Z,20.32
2022-10-28T15:32:04.896Z,20.31
2022-10-28T15:34:31.731Z,20.29
2022-10-28T15:39:32.069Z,20.25
2022-10-28T15:41:59.941Z,20.24
2022-10-28T15:44:31.502Z,20.29
2022-10-28T15:46:59.525Z,20.25
2022-10-28T15:49:34.185Z,20.24
2022-10-28T15:52:20.562Z,20.15
2022-10-28T15:54:56.229Z,20.11
2022-10-28T15:57:25.252Z,20.04
2022-10-28T16:00:21.061Z,19.96
2022-10-28T16:02:56.067Z,19.86
2022-10-28T16:05:46.708Z,19.93
2022-10-28T16:08:20.631Z,19.90
2022-10-28T16:10:51.327Z,19.86
2022-10-28T16:13:25.815Z,19.75
2022-10-28T16:15:57.472Z,19.71
2022-10-28T16:18:25.835Z,19.67
2022-10-28T16:20:53.691Z,19.63
2022-10-28T16:23:23.038Z,19.57
2022-10-28T16:25:51.351Z,19.55
2022-10-28T16:28:24.633Z,19.66
2022-10-28T16:30:53.654Z,19.73
2022-10-28T16:33:27.899Z,19.69
2022-10-28T16:35:54.725Z,19.66
2022-10-28T16:38:21.706Z,19.63
2022-10-28T16:40:54.382Z,19.64
2022-10-28T16:43:23.472Z,19.65
2022-10-28T16:45:51.654Z,19.77
2022-10-28T16:48:20.346Z,19.77
2022-10-28T16:50:53.646Z,19.71
2022-10-28T16:53:21.585Z,19.76
2022-10-28T16:55:48.770Z,19.87
2022-10-28T16:58:21.844Z,19.79
2022-10-28T17:00:51.483Z,19.84
2022-10-28T17:03:18.148Z,19.84
2022-10-28T17:05:44.924Z,19.81
2022-10-28T17:08:11.581Z,19.72
2022-10-28T17:10:40.348Z,19.70
2022-10-28T17:13:08.739Z,19.76
2022-10-28T17:15:36.773Z,19.71
2022-10-28T17:18:03.734Z,19.78
2022-10-28T17:20:30.663Z,19.78
2022-10-28T17:22:58.133Z,20.02
2022-10-28T17:25:24.981Z,19.94
2022-10-28T17:27:52.798Z,19.89
2022-10-28T17:30:20.124Z,19.89
2022-10-28T17:32:52.470Z,19.95
2022-10-28T17:35:20.427Z,19.98
2022-10-28T17:37:47.074Z,19.94
2022-10-28T17:40:14.323Z,19.93
2022-10-28T17:42:41.019Z,19.91
2022-10-28T17:45:09.615Z,19.97
2022-10-28T17:47:36.376Z,19.86
2022-10-28T17:50:05.562Z,19.85
2022-10-28T17:52:35.691Z,19.90
2022-10-28T17:55:05.878Z,19.67
2022-10-28T17:57:32.652Z,19.76
2022-10-28T17:59:59.532Z,19.72
2022-10-28T18:02:26.494Z,19.73
2022-10-28T18:04:53.303Z,19.73
2022-10-28T18:07:21.319Z,19.66
2022-10-28T18:09:48.009Z,19.61
2022-10-28T18:12:14.741Z,19.55
2022-10-28T18:14:41.498Z,19.59
2022-10-28T18:17:08.336Z,19.53
2022-10-28T18:19:35.074Z,19.55
2022-10-28T18:22:02.612Z,19.38
2022-10-28T18:24:30.972Z,19.49
2022-10-28T18:26:57.661Z,19.44
2022-10-28T18:29:24.695Z,19.37
2022-10-28T18:31:51.752Z,19.36
2022-10-28T18:34:19.072Z,19.31
2022-10-28T18:36:46.607Z,19.21
2022-10-28T18:39:13.301Z,19.07
2022-10-28T18:41:42.892Z,19.18
2022-10-28T18:44:12.119Z,19.10
2022-10-28T18:46:38.855Z,19.03
2022-10-28T18:49:07.286Z,19.05
2022-10-28T18:51:34.815Z,19.07
2022-10-28T18:54:02.177Z,19.06
2022-10-28T18:56:30.223Z,19.11
2022-10-28T18:58:59.096Z,19.18
2022-10-28T19:01:27.700Z,19.17
2022-10-28T19:03:56.230Z,19.24
2022-10-28T19:06:23.817Z,19.27
2022-10-28T19:08:51.836Z,19.23
2022-10-28T19:11:19.537Z,19.37
2022-10-28T19:13:46.918Z,19.38
2022-10-28T19:16:15.112Z,19.44
2022-10-28T19:18:41.922Z,19.35
2022-10-28T19:21:12.622Z,19.37
2022-10-28T19:23:40.138Z,19.36
2022-10-28T19:26:07.891Z,19.31
2022-10-28T19:28:39.552Z,19.34
2022-10-28T19:31:08.329Z,19.39
2022-10-28T19:33:38.399Z,19.32
2022-10-28T19:36:07.689Z,19.25
2022-10-28T19:38:36.334Z,19.25
2022-10-28T19:41:08.788Z,19.25
2022-10-28T19:43:35.994Z,19.27
2022-10-28T19:46:13.388Z,19.30
2022-10-28T19:48:43.486Z,19.41
2022-10-28T19:51:14.134Z,19.40
2022-10-28T19:53:41.040Z,19.34
2022-10-28T19:56:07.884Z,19.37
2022-10-28T19:58:35.038Z,19.31
2022-10-28T20:01:03.466Z,19.37
2022-10-28T20:03:34.392Z,19.40
2022-10-28T20:06:06.134Z,19.38
2022-10-28T20:08:37.086Z,19.36
2022-10-28T20:11:06.197Z,19.53
2022-10-28T20:13:33.846Z,19.47
2022-10-28T20:16:02.804Z,19.33
2022-10-28T20:18:30.994Z,19.36
2022-10-28T20:21:04.446Z,19.28
2022-10-28T20:23:32.360Z,19.23
2022-10-28T20:25:59.933Z,19.17
2022-10-28T20:28:26.627Z,19.19
2022-10-28T20:30:58.514Z,19.11
2022-10-28T20:33:25.870Z,19.14
2022-10-28T20:35:53.429Z,19.06
2022-10-28T20:38:21.841Z,19.04
2022-10-28T20:40:49.121Z,19.10
2022-10-28T20:43:16.936Z,19.02
2022-10-28T20:45:43.630Z,18.97
2022-10-28T20:48:10.379Z,19.01
2022-10-28T20:50:37.068Z,18.97
2022-10-28T20:53:03.817Z,19.03
2022-10-28T20:55:31.865Z,19.05
2022-10-28T20:57:58.750Z,19.09
2022-10-28T21:00:25.415Z,19.11
2022-10-28T21:02:55.367Z,19.07
2022-10-28T21:05:22.586Z,19.04
2022-10-28T21:07:49.275Z,19.04
2022-10-28T21:10:17.270Z,19.04
2022-10-28T21:12:45.256Z,19.01
2022-10-28T21:15:12.542Z,18.94
2022-10-28T21:17:39.607Z,18.91
2022-10-28T21:20:07.559Z,18.85
2022-10-28T21:22:35.009Z,18.68
2022-10-28T21:25:02.805Z,18.65
2022-10-28T21:27:29.742Z,18.55
2022-10-28T21:29:57.904Z,18.53
2022-10-28T21:32:25.010Z,18.45
2022-10-28T21:34:51.871Z,18.40
2022-10-28T21:37:18.760Z,18.45
2022-10-28T21:39:47.100Z,18.36
2022-10-28T21:42:14.257Z,18.27
2022-10-28T21:44:42.374Z,18.26
2022-10-28T21:47:10.456Z,18.22
2022-10-28T21:49:37.240Z,18.13
2022-10-28T21:52:04.241Z,18.08
2022-10-28T21:54:32.357Z,18.06
2022-10-28T21:56:58.986Z,18.11
2022-10-28T21:59:25.652Z,18.06
2022-10-28T22:01:52.498Z,18.08
2022-10-28T22:04:20.671Z,18.02
2022-10-28T22:09:18.964Z,17.90
2022-10-28T22:11:45.707Z,17.78
2022-10-28T22:14:12.387Z,17.77
2022-10-28T22:16:39.254Z,17.75
2022-10-28T22:19:07.924Z,17.70
2022-10-28T22:21:40.523Z,17.71
2022-10-28T22:24:07.954Z,17.74
2022-10-28T22:26:34.849Z,17.75
2022-10-28T22:29:01.584Z,17.69
2022-10-28T22:31:33.580Z,17.60
2022-10-28T22:34:00.721Z,17.45
2022-10-28T22:36:31.420Z,17.38
2022-10-28T22:38:59.496Z,17.38
2022-10-28T22:41:28.319Z,17.30
2022-10-28T22:43:56.687Z,17.11
2022-10-28T22:46:26.195Z,17.06
2022-10-28T22:48:53.615Z,17.07
2022-10-28T22:51:20.980Z,17.06
2022-10-28T22:53:47.685Z,17.00
2022-10-28T22:56:18.559Z,16.84
2022-10-28T22:58:45.287Z,16.67
2022-10-28T23:01:13.699Z,16.49
2022-10-28T23:03:42.586Z,16.61
2022-10-28T23:06:11.003Z,16.64
2022-10-28T23:08:38.794Z,16.50
2022-10-28T23:11:05.530Z,16.13
2022-10-28T23:13:33.661Z,15.91
2022-10-28T23:16:03.813Z,15.86
2022-10-28T23:18:30.626Z,15.81
2022-10-28T23:20:57.366Z,15.76
2022-10-28T23:23:24.291Z,15.63
2022-10-28T23:25:54.988Z,15.49
2022-10-28T23:28:21.816Z,15.32
2022-10-28T23:30:50.632Z,15.23
2022-10-28T23:33:17.223Z,15.20
2022-10-28T23:35:44.243Z,15.07
2022-10-28T23:38:11.813Z,14.94
2022-10-28T23:40:39.206Z,14.88
2022-10-28T23:43:06.325Z,14.87
2022-10-28T23:45:33.680Z,14.85
2022-10-28T23:48:02.172Z,14.82
2022-10-28T23:50:28.994Z,14.83
2022-10-28T23:52:59.039Z,14.82
2022-10-28T23:55:26.238Z,14.68
2022-10-28T23:57:56.359Z,14.66
